Time;durP1;ratioP1;P1;durP2;ratioP2;P2;SDS_P1;SDS_P2;PMS_P1;PMS_P2;Temp;Humidity;BMP_temperature;BMP_pressure;BME280_temperature;BME280_humidity;BME280_pressure;Samples;Min_cycle;Max_cycle;Signal;HPM_P1;HPM_P2
2021/11/06 00:02:25;;;;;;;15.60;10.93;;;7.40;69.50;;;;;;5088311;28;20093;-75
2021/11/06 00:04:51;;;;;;;14.68;11.32;;;7.40;69.70;;;;;;5091465;28;20466;-76
2021/11/06 00:07:17;;;;;;;14.65;11.48;;;7.40;69.50;;;;;;5089720;28;20048;-74
2021/11/06 00:09:43;;;;;;;15.07;11.70;;;7.30;69.50;;;;;;5088585;28;20021;-74
2021/11/06 00:12:09;;;;;;;17.02;12.00;;;7.30;69.40;;;;;;5087569;28;20055;-73
2021/11/06 00:14:35;;;;;;;18.35;13.07;;;7.20;69.80;;;;;;5089391;28;20028;-75
2021/11/06 00:17:01;;;;;;;21.33;14.65;;;7.20;69.90;;;;;;5089940;28;20028;-74
2021/11/06 00:19:27;;;;;;;20.77;13.50;;;7.20;69.70;;;;;;5090348;28;20028;-75
2021/11/06 00:21:53;;;;;;;19.27;13.52;;;7.20;70.20;;;;;;5088228;28;20055;-74
2021/11/06 00:24:21;;;;;;;19.63;13.48;;;7.20;70.00;;;;;;5088080;28;20024;-75
2021/11/06 00:26:51;;;;;;;18.52;13.70;;;7.20;69.70;;;;;;5087715;28;20062;-75
2021/11/06 00:29:18;;;;;;;19.35;14.20;;;7.20;69.80;;;;;;5088570;28;20055;-74
2021/11/06 00:31:44;;;;;;;18.85;13.95;;;7.20;69.80;;;;;;5091528;28;20145;-75
2021/11/06 00:34:10;;;;;;;20.35;14.60;;;7.20;69.80;;;;;;5090116;28;20045;-74
2021/11/06 00:36:36;;;;;;;21.17;14.43;;;7.10;69.90;;;;;;5086551;28;20016;-74
2021/11/06 00:39:03;;;;;;;22.48;14.50;;;7.10;69.80;;;;;;5084797;28;20426;-74
2021/11/06 00:41:28;;;;;;;22.25;13.95;;;7.00;69.70;;;;;;5089218;28;20039;-74
2021/11/06 00:43:54;;;;;;;15.93;13.02;;;7.00;70.00;;;;;;5087481;28;20493;-74
2021/11/06 00:46:20;;;;;;;17.60;13.13;;;7.00;70.40;;;;;;5089334;28;20026;-74
2021/11/06 00:48:45;;;;;;;16.08;12.65;;;7.00;70.10;;;;;;5088048;28;20127;-74
2021/11/06 00:51:11;;;;;;;16.98;12.18;;;7.00;70.30;;;;;;5088348;28;20430;-74
2021/11/06 00:53:37;;;;;;;16.55;12.02;;;7.10;70.20;;;;;;5088616;28;20032;-74
2021/11/06 00:56:03;;;;;;;16.52;12.27;;;7.10;70.00;;;;;;5089240;28;20516;-74
2021/11/06 00:58:28;;;;;;;17.25;12.32;;;7.00;70.90;;;;;;5105307;28;20047;-75
2021/11/06 01:00:54;;;;;;;19.27;12.95;;;7.10;70.20;;;;;;5087870;28;20501;-74
2021/11/06 01:03:20;;;;;;;17.10;12.10;;;7.00;69.70;;;;;;5089422;28;20481;-75
2021/11/06 01:05:46;;;;;;;17.15;12.70;;;7.00;69.80;;;;;;5088406;28;20020;-74
2021/11/06 01:08:12;;;;;;;19.25;14.43;;;7.00;70.00;;;;;;5072444;28;20069;-75
2021/11/06 01:10:38;;;;;;;20.67;14.48;;;7.00;70.00;;;;;;5090872;28;20389;-74
2021/11/06 01:13:04;;;;;;;20.88;13.82;;;6.90;69.90;;;;;;5088087;28;20028;-74
2021/11/06 01:15:29;;;;;;;21.10;13.68;;;6.90;70.10;;;;;;5087965;28;20027;-74
2021/11/06 01:17:55;;;;;;;23.75;14.23;;;6.90;70.00;;;;;;5087756;28;20032;-74
2021/11/06 01:20:21;;;;;;;20.35;14.38;;;6.90;70.20;;;;;;5087716;28;20020;-74
2021/11/06 01:22:46;;;;;;;19.80;14.15;;;6.80;70.30;;;;;;5089681;28;20059;-72
2021/11/06 01:25:14;;;;;;;16.98;12.98;;;6.80;70.20;;;;;;5100104;28;20532;-74
2021/11/06 01:27:40;;;;;;;17.40;12.65;;;6.90;70.30;;;;;;5091670;28;20127;-74
2021/11/06 01:30:07;;;;;;;18.77;12.85;;;6.90;70.30;;;;;;5087886;28;20116;-74
2021/11/06 01:32:33;;;;;;;16.85;12.35;;;6.80;69.50;;;;;;5087769;28;20060;-74
2021/11/06 01:34:58;;;;;;;20.48;12.95;;;6.70;69.60;;;;;;5089817;28;20066;-72
2021/11/06 01:37:24;;;;;;;17.90;12.50;;;6.70;70.50;;;;;;5089497;28;20036;-75
2021/11/06 01:39:50;;;;;;;18.30;12.80;;;6.70;70.40;;;;;;5087468;28;20031;-75
2021/11/06 01:42:16;;;;;;;19.40;13.30;;;6.70;70.10;;;;;;5087508;28;20028;-75
2021/11/06 01:44:41;;;;;;;19.65;12.70;;;6.70;70.20;;;;;;5087158;28;20035;-75
2021/11/06 01:47:09;;;;;;;18.88;13.00;;;6.70;70.40;;;;;;5081447;28;20032;-75
2021/11/06 01:49:39;;;;;;;17.45;12.93;;;6.60;70.60;;;;;;5085252;28;20127;-75
2021/11/06 01:52:06;;;;;;;18.17;13.00;;;6.60;70.50;;;;;;5092191;28;20020;-75
2021/11/06 01:54:32;;;;;;;16.10;12.73;;;6.50;70.30;;;;;;5092358;28;20040;-74
2021/11/06 01:56:58;;;;;;;15.75;12.38;;;6.60;70.50;;;;;;5090979;28;20028;-74
2021/11/06 01:59:23;;;;;;;20.27;13.48;;;6.60;70.70;;;;;;5091205;28;20367;-74
2021/11/06 02:01:50;;;;;;;18.83;12.80;;;6.50;70.00;;;;;;5081784;28;20038;-74
2021/11/06 02:04:16;;;;;;;17.65;12.13;;;6.50;70.70;;;;;;5093475;28;20036;-74
2021/11/06 02:06:41;;;;;;;17.27;13.10;;;6.60;71.10;;;;;;5090672;28;20031;-74
2021/11/06 02:09:07;;;;;;;18.65;13.15;;;6.60;71.10;;;;;;5092693;28;20119;-74
2021/11/06 02:11:35;;;;;;;18.00;13.18;;;6.60;70.80;;;;;;5090833;28;20389;-74
2021/11/06 02:14:01;;;;;;;18.48;13.20;;;6.50;70.30;;;;;;5092798;28;20510;-74
2021/11/06 02:16:26;;;;;;;17.00;12.55;;;6.50;70.80;;;;;;5092446;28;20099;-75
2021/11/06 02:18:52;;;;;;;18.70;12.65;;;6.50;70.80;;;;;;5090713;28;20469;-74
2021/11/06 02:21:18;;;;;;;16.90;12.98;;;6.50;70.40;;;;;;5091911;28;20437;-74
2021/11/06 02:23:48;;;;;;;18.27;13.18;;;6.40;70.60;;;;;;5090797;28;20032;-72
2021/11/06 02:26:15;;;;;;;16.08;11.27;;;6.40;70.60;;;;;;5090746;28;20480;-75
2021/11/06 02:28:44;;;;;;;16.92;12.00;;;6.40;71.00;;;;;;5093487;28;20119;-72
2021/11/06 02:31:10;;;;;;;16.15;11.48;;;6.40;71.00;;;;;;5090707;28;20515;-74
2021/11/06 02:33:36;;;;;;;14.80;11.00;;;6.40;70.80;;;;;;5090171;28;20024;-74
2021/11/06 02:36:02;;;;;;;15.23;11.45;;;6.40;70.90;;;;;;5090250;28;20032;-74
2021/11/06 02:38:28;;;;;;;14.52;10.52;;;6.40;70.80;;;;;;5090782;28;20024;-74
2021/11/06 02:40:56;;;;;;;14.32;10.50;;;6.30;70.30;;;;;;5092766;28;20111;-74
2021/11/06 02:43:22;;;;;;;17.48;10.85;;;6.30;70.40;;;;;;5091453;28;20020;-74
2021/11/06 02:45:47;;;;;;;17.27;10.80;;;6.30;70.40;;;;;;5091662;28;20063;-74
2021/11/06 02:48:13;;;;;;;16.27;11.00;;;6.20;70.70;;;;;;5089821;28;20059;-75
2021/11/06 02:50:39;;;;;;;15.00;10.30;;;6.20;70.90;;;;;;5089691;28;20047;-75
2021/11/06 02:53:05;;;;;;;17.10;10.90;;;6.20;71.00;;;;;;5090723;28;20057;-75
2021/11/06 02:55:31;;;;;;;17.42;10.70;;;6.20;70.70;;;;;;5091053;28;20020;-75
2021/11/06 02:57:57;;;;;;;14.98;9.60;;;6.10;70.70;;;;;;5090152;28;20051;-75
2021/11/06 03:00:23;;;;;;;13.85;9.10;;;6.10;71.00;;;;;;5089806;28;20043;-75
2021/11/06 03:02:49;;;;;;;12.95;8.52;;;6.20;70.40;;;;;;5089524;28;20489;-75
2021/11/06 03:05:15;;;;;;;13.95;9.38;;;6.20;70.30;;;;;;5090050;28;20046;-75
2021/11/06 03:07:42;;;;;;;11.98;9.07;;;6.20;70.70;;;;;;5093206;28;20055;-74
2021/11/06 03:10:09;;;;;;;12.32;9.27;;;6.00;69.30;;;;;;5088239;28;20123;-74
2021/11/06 03:12:38;;;;;;;12.32;8.80;;;5.80;70.10;;;;;;5089679;28;20032;-74
2021/11/06 03:15:05;;;;;;;12.85;8.82;;;5.70;70.20;;;;;;5087924;28;20024;-74
2021/11/06 03:17:31;;;;;;;11.25;8.32;;;5.60;69.80;;;;;;5088272;28;20035;-74
2021/11/06 03:19:56;;;;;;;12.20;8.20;;;5.60;71.50;;;;;;5088369;28;20103;-74
2021/11/06 03:22:22;;;;;;;12.55;7.97;;;5.70;72.10;;;;;;5092985;28;20031;-74
2021/11/06 03:24:48;;;;;;;13.25;8.18;;;5.90;72.10;;;;;;5097909;28;20072;-74
2021/11/06 03:27:14;;;;;;;10.57;7.65;;;6.00;71.60;;;;;;5099535;28;20539;-74
2021/11/06 03:29:39;;;;;;;12.63;8.38;;;6.00;71.50;;;;;;5089574;28;20056;-75
2021/11/06 03:32:06;;;;;;;11.80;8.50;;;6.10;71.40;;;;;;5090377;28;20033;-74
2021/11/06 03:34:32;;;;;;;12.27;7.90;;;6.00;70.80;;;;;;5107409;28;20024;-74
2021/11/06 03:36:58;;;;;;;12.13;8.13;;;6.00;71.00;;;;;;5090608;28;20068;-74
2021/11/06 03:39:24;;;;;;;12.38;7.97;;;6.00;71.20;;;;;;5089178;28;20024;-74
2021/11/06 03:41:50;;;;;;;9.85;7.07;;;5.90;71.00;;;;;;5089213;28;20097;-74
2021/11/06 03:44:15;;;;;;;13.13;8.50;;;5.90;71.10;;;;;;5088557;28;20075;-74
2021/11/06 03:46:42;;;;;;;9.77;7.60;;;5.90;71.30;;;;;;5092648;28;20105;-73
2021/11/06 03:49:08;;;;;;;11.63;7.70;;;5.90;71.40;;;;;;5087449;28;20048;-73
2021/11/06 03:51:34;;;;;;;10.25;7.43;;;5.90;71.50;;;;;;5088726;28;20077;-74
2021/11/06 03:54:00;;;;;;;10.40;7.90;;;5.90;71.20;;;;;;5090547;28;20028;-73
2021/11/06 03:56:27;;;;;;;9.82;7.68;;;5.80;71.00;;;;;;5088775;28;20044;-73
2021/11/06 03:58:53;;;;;;;11.65;8.25;;;5.80;71.70;;;;;;5091476;28;20043;-74
2021/11/06 04:01:19;;;;;;;11.63;8.13;;;5.90;71.60;;;;;;5089881;28;20028;-73
2021/11/06 04:03:45;;;;;;;12.30;7.88;;;5.90;71.50;;;;;;5088610;28;20081;-74
2021/11/06 04:06:11;;;;;;;10.25;7.93;;;5.80;71.50;;;;;;5090142;28;20081;-74
2021/11/06 04:08:37;;;;;;;9.68;7.40;;;5.90;71.50;;;;;;5088692;28;20462;-73
2021/11/06 04:11:03;;;;;;;10.57;7.80;;;5.80;71.50;;;;;;5090357;28;20036;-74
2021/11/06 04:13:29;;;;;;;9.48;7.10;;;5.80;71.10;;;;;;5090524;28;20077;-73
2021/11/06 04:15:55;;;;;;;11.20;7.75;;;5.70;71.10;;;;;;5088635;28;20039;-73
2021/11/06 04:18:20;;;;;;;11.45;7.28;;;5.70;72.20;;;;;;5088189;28;20065;-74
2021/11/06 04:20:46;;;;;;;10.30;7.15;;;5.80;71.60;;;;;;5087952;28;20388;-73
2021/11/06 04:23:13;;;;;;;9.55;7.13;;;5.80;71.80;;;;;;5089076;28;20024;-74
2021/11/06 04:25:39;;;;;;;8.30;6.70;;;5.80;71.40;;;;;;5103197;28;20027;-75
2021/11/06 04:28:04;;;;;;;10.88;7.43;;;5.80;71.30;;;;;;5083898;28;20085;-74
2021/11/06 04:30:30;;;;;;;9.32;6.40;;;5.80;71.40;;;;;;5088163;28;20400;-74
2021/11/06 04:32:56;;;;;;;9.98;7.00;;;5.90;71.90;;;;;;5087956;28;20020;-74
2021/11/06 04:35:22;;;;;;;7.95;6.47;;;5.90;72.50;;;;;;5088469;28;20099;-74
2021/11/06 04:37:48;;;;;;;8.68;6.65;;;5.80;71.20;;;;;;5091308;28;20020;-74
2021/11/06 04:40:14;;;;;;;9.82;7.20;;;5.80;71.40;;;;;;5089142;28;20391;-73
2021/11/06 04:42:42;;;;;;;9.52;6.85;;;5.80;71.10;;;;;;5088033;28;20028;-73
2021/11/06 04:45:10;;;;;;;9.60;6.85;;;5.80;71.00;;;;;;5088088;28;20020;-74
2021/11/06 04:47:35;;;;;;;9.95;7.28;;;5.70;71.30;;;;;;5089036;28;20497;-74
2021/11/06 04:50:02;;;;;;;9.10;7.22;;;5.70;70.60;;;;;;5087223;28;20107;-73
2021/11/06 04:52:29;;;;;;;8.57;6.45;;;5.60;71.00;;;;;;5090225;28;20051;-73
2021/11/06 04:54:55;;;;;;;13.65;7.07;;;5.60;71.30;;;;;;5088054;28;20020;-73
2021/11/06 04:57:20;;;;;;;10.38;7.20;;;5.60;71.40;;;;;;5088228;28;20034;-73
2021/11/06 04:59:46;;;;;;;8.73;6.50;;;5.60;71.40;;;;;;5087990;28;20016;-73
2021/11/06 05:02:12;;;;;;;9.40;6.40;;;5.60;71.50;;;;;;5088143;28;20028;-73
2021/11/06 05:04:37;;;;;;;8.52;6.57;;;5.60;71.30;;;;;;5107209;28;20020;-73
2021/11/06 05:07:04;;;;;;;8.38;6.68;;;5.60;71.10;;;;;;5088228;28;20085;-73
2021/11/06 05:09:31;;;;;;;10.15;6.78;;;5.50;71.10;;;;;;5087716;28;20401;-73
2021/11/06 05:11:56;;;;;;;9.05;6.57;;;5.50;71.70;;;;;;5088377;28;20020;-73
2021/11/06 05:14:22;;;;;;;9.77;7.10;;;5.60;72.70;;;;;;5084933;28;20040;-74
2021/11/06 05:16:49;;;;;;;8.85;6.40;;;5.60;71.50;;;;;;5090410;28;20067;-73
2021/11/06 05:19:15;;;;;;;9.23;6.65;;;5.60;71.60;;;;;;5090189;28;20065;-73
2021/11/06 05:21:41;;;;;;;8.65;7.03;;;5.60;71.90;;;;;;5087882;28;20115;-73
2021/11/06 05:24:08;;;;;;;9.77;6.82;;;5.60;71.40;;;;;;5089704;28;20032;-73
2021/11/06 05:26:35;;;;;;;8.20;6.68;;;5.50;71.50;;;;;;5090471;28;20075;-73
2021/11/06 05:29:04;;;;;;;9.07;7.30;;;5.50;71.60;;;;;;5093542;28;20024;-73
2021/11/06 05:31:31;;;;;;;8.85;6.28;;;5.40;71.70;;;;;;5109252;28;20393;-73
2021/11/06 05:33:57;;;;;;;8.52;6.45;;;5.50;71.80;;;;;;5091817;28;20020;-73
2021/11/06 05:36:22;;;;;;;10.05;7.30;;;5.40;71.70;;;;;;5091480;28;20103;-73
2021/11/06 05:38:48;;;;;;;10.05;6.72;;;5.50;72.10;;;;;;5093733;28;20103;-73
2021/11/06 05:41:15;;;;;;;8.90;7.25;;;5.50;71.80;;;;;;5091633;28;20044;-73
2021/11/06 05:43:41;;;;;;;8.35;6.55;;;5.40;71.70;;;;;;5091041;28;20035;-73
2021/11/06 05:46:07;;;;;;;8.85;6.80;;;5.40;71.90;;;;;;5089033;28;20035;-73
2021/11/06 05:48:33;;;;;;;9.77;6.88;;;5.40;71.50;;;;;;5088150;28;20047;-73
2021/11/06 05:50:58;;;;;;;11.18;6.93;;;5.30;71.50;;;;;;5093327;28;20039;-73
2021/11/06 05:53:24;;;;;;;9.82;6.90;;;5.10;71.30;;;;;;5091002;28;20036;-73
2021/11/06 05:55:50;;;;;;;9.55;7.10;;;5.10;72.20;;;;;;5093667;28;20047;-73
2021/11/06 05:58:15;;;;;;;9.45;7.32;;;5.10;71.90;;;;;;5092197;28;20032;-73
2021/11/06 06:00:41;;;;;;;12.00;6.93;;;5.10;72.20;;;;;;5090267;28;20020;-73
2021/11/06 06:03:07;;;;;;;11.02;6.80;;;5.10;72.20;;;;;;5090967;28;20422;-74
2021/11/06 06:05:33;;;;;;;9.27;6.75;;;5.10;71.70;;;;;;5090764;28;20024;-73
2021/11/06 06:07:59;;;;;;;8.98;6.82;;;5.20;73.90;;;;;;5092643;28;20079;-73
2021/11/06 06:10:24;;;;;;;9.23;6.78;;;5.30;72.90;;;;;;5092648;28;20050;-74
2021/11/06 06:12:51;;;;;;;9.23;6.80;;;5.30;72.50;;;;;;5091045;28;20028;-75
2021/11/06 06:15:18;;;;;;;10.40;7.00;;;5.30;72.90;;;;;;5090671;28;20488;-73
2021/11/06 06:17:44;;;;;;;8.13;6.65;;;5.40;72.90;;;;;;5091183;28;20027;-74
2021/11/06 06:20:10;;;;;;;9.80;6.85;;;5.40;72.10;;;;;;5091458;28;20036;-74
2021/11/06 06:22:37;;;;;;;10.20;6.95;;;5.40;72.60;;;;;;5093968;28;20099;-74
2021/11/06 06:25:04;;;;;;;10.85;7.20;;;5.40;72.30;;;;;;5090795;28;20071;-73
2021/11/06 06:27:30;;;;;;;8.93;6.78;;;5.40;72.40;;;;;;5090841;28;20519;-73
2021/11/06 06:29:56;;;;;;;9.55;7.82;;;5.40;72.00;;;;;;5090285;28;20064;-73
2021/11/06 06:32:21;;;;;;;9.85;7.05;;;5.30;71.30;;;;;;5090881;28;20033;-73
2021/11/06 06:34:47;;;;;;;9.82;7.03;;;5.20;72.40;;;;;;5093396;28;20111;-73
2021/11/06 06:37:13;;;;;;;11.32;7.35;;;5.30;72.90;;;;;;5091019;28;20100;-73
2021/11/06 06:39:38;;;;;;;10.02;7.55;;;5.30;72.60;;;;;;5090367;28;20451;-73
2021/11/06 06:42:04;;;;;;;11.38;7.80;;;5.20;72.10;;;;;;5084087;28;20028;-75
2021/11/06 06:44:30;;;;;;;10.23;7.28;;;5.20;72.90;;;;;;5090294;28;20032;-74
2021/11/06 06:46:56;;;;;;;12.50;7.80;;;5.20;73.10;;;;;;5092655;28;20541;-75
2021/11/06 06:49:21;;;;;;;11.93;7.57;;;5.20;72.40;;;;;;5091266;28;20053;-75
2021/11/06 06:51:47;;;;;;;9.25;7.30;;;5.20;73.00;;;;;;5090280;28;20024;-75
2021/11/06 06:54:13;;;;;;;9.55;7.28;;;5.20;73.20;;;;;;5090254;28;20032;-75
2021/11/06 06:56:38;;;;;;;9.48;7.65;;;5.30;73.50;;;;;;5089825;28;20028;-75
2021/11/06 06:59:04;;;;;;;9.52;7.00;;;5.40;73.20;;;;;;5091724;28;20039;-74
2021/11/06 07:01:29;;;;;;;11.27;7.63;;;5.40;72.90;;;;;;5092357;28;20020;-74
2021/11/06 07:03:55;;;;;;;9.18;6.90;;;5.30;72.80;;;;;;5089983;28;20036;-73
2021/11/06 07:06:21;;;;;;;9.27;7.00;;;5.30;72.70;;;;;;5089713;28;20024;-72
2021/11/06 07:08:46;;;;;;;12.35;7.57;;;5.40;72.80;;;;;;5089730;28;20471;-73
2021/11/06 07:11:12;;;;;;;9.35;7.45;;;5.40;73.10;;;;;;5090025;28;20028;-73
2021/11/06 07:13:38;;;;;;;10.70;7.32;;;5.40;73.00;;;;;;5093164;28;20032;-73
2021/11/06 07:16:05;;;;;;;9.85;7.47;;;5.50;73.30;;;;;;5089791;28;20052;-73
2021/11/06 07:18:31;;;;;;;11.23;8.00;;;5.60;73.70;;;;;;5089797;28;20493;-74
2021/11/06 07:20:57;;;;;;;9.32;7.20;;;5.70;73.50;;;;;;5091116;28;20096;-73
2021/11/06 07:23:22;;;;;;;10.43;8.10;;;5.70;73.30;;;;;;5088863;28;20497;-73
2021/11/06 07:25:48;;;;;;;10.27;8.23;;;5.80;73.50;;;;;;5082501;28;20028;-74
2021/11/06 07:28:14;;;;;;;10.77;7.93;;;5.80;73.30;;;;;;5090097;28;20122;-73
2021/11/06 07:30:40;;;;;;;11.55;8.50;;;5.90;73.50;;;;;;5089534;28;20024;-73
2021/11/06 07:33:05;;;;;;;12.95;9.05;;;6.00;73.30;;;;;;5089344;28;20028;-74
2021/11/06 07:35:31;;;;;;;11.68;8.68;;;6.20;73.20;;;;;;5090042;28;20027;-73
2021/11/06 07:37:57;;;;;;;11.20;8.10;;;6.40;72.90;;;;;;5091849;28;20059;-73
2021/11/06 07:40:23;;;;;;;11.95;8.60;;;6.70;73.10;;;;;;5088958;28;20480;-72
2021/11/06 07:42:49;;;;;;;11.75;8.75;;;7.10;73.00;;;;;;5089022;28;20036;-72
2021/11/06 07:45:17;;;;;;;12.48;9.20;;;7.40;71.80;;;;;;5090653;28;20027;-72
2021/11/06 07:47:43;;;;;;;14.88;9.10;;;7.60;70.20;;;;;;5088659;28;20055;-72
2021/11/06 07:50:09;;;;;;;13.32;9.57;;;7.80;70.50;;;;;;5089723;28;20400;-73
2021/11/06 07:52:36;;;;;;;12.15;9.38;;;8.10;70.40;;;;;;5091963;28;20031;-72
2021/11/06 07:55:03;;;;;;;13.43;9.15;;;8.40;69.10;;;;;;5087730;28;20419;-72
2021/11/06 07:57:29;;;;;;;13.07;9.77;;;8.50;68.00;;;;;;5087569;28;20028;-72
2021/11/06 07:59:54;;;;;;;11.65;9.13;;;8.70;68.10;;;;;;5089084;28;20131;-72
2021/11/06 08:02:20;;;;;;;11.65;8.73;;;8.90;67.40;;;;;;5088100;28;20028;-74
2021/11/06 08:04:46;;;;;;;12.63;9.20;;;9.20;67.80;;;;;;5091867;28;20055;-79
2021/11/06 08:07:12;;;;;;;10.73;8.57;;;9.30;65.90;;;;;;5089387;28;20036;-75
2021/11/06 08:09:37;;;;;;;12.52;9.48;;;9.20;65.00;;;;;;5088451;28;20066;-72
2021/11/06 08:12:03;;;;;;;13.55;10.35;;;9.00;65.80;;;;;;5088724;28;20436;-74
2021/11/06 08:14:29;;;;;;;12.05;9.55;;;9.00;66.50;;;;;;5088815;28;20108;-73
2021/11/06 08:16:59;;;;;;;12.00;9.88;;;8.90;66.60;;;;;;5091032;28;20446;-74
2021/11/06 08:19:25;;;;;;;10.77;9.55;;;8.90;67.10;;;;;;5088961;28;20028;-74
2021/11/06 08:21:52;;;;;;;11.57;9.68;;;9.10;68.00;;;;;;5088660;28;20392;-73
2021/11/06 08:24:19;;;;;;;11.25;9.57;;;9.50;67.50;;;;;;5088325;28;20374;-73
2021/11/06 08:26:46;;;;;;;11.52;9.38;;;9.90;66.30;;;;;;5090064;28;20058;-73
2021/11/06 08:29:11;;;;;;;11.88;9.27;;;10.10;65.10;;;;;;5073269;28;20028;-78
2021/11/06 08:31:37;;;;;;;11.00;9.02;;;10.50;65.00;;;;;;5091826;28;20369;-79
2021/11/06 08:34:03;;;;;;;12.48;9.85;;;10.90;64.70;;;;;;5088596;28;20091;-71
2021/11/06 08:36:28;;;;;;;14.10;10.27;;;11.30;63.60;;;;;;5088519;28;20080;-71
2021/11/06 08:38:55;;;;;;;11.73;9.45;;;11.80;63.10;;;;;;5087818;28;20145;-70
2021/11/06 08:41:21;;;;;;;11.35;9.65;;;12.00;61.00;;;;;;5086039;28;20538;-71
2021/11/06 08:43:47;;;;;;;11.90;9.38;;;11.80;60.10;;;;;;5100480;28;20098;-70
2021/11/06 08:46:12;;;;;;;12.13;9.88;;;11.50;60.00;;;;;;5090110;28;20109;-74
2021/11/06 08:48:38;;;;;;;12.27;10.50;;;11.20;61.30;;;;;;5089037;28;20048;-71
2021/11/06 08:51:04;;;;;;;11.90;9.38;;;11.10;61.90;;;;;;5089750;28;20388;-70
2021/11/06 08:53:30;;;;;;;11.93;9.38;;;10.90;62.00;;;;;;5088788;28;20024;-70
2021/11/06 08:55:56;;;;;;;10.88;9.75;;;10.60;62.20;;;;;;5098700;28;20035;-70
2021/11/06 08:58:22;;;;;;;11.90;9.05;;;10.40;62.70;;;;;;5090683;28;20035;-71
2021/11/06 09:00:49;;;;;;;11.77;8.70;;;10.30;63.80;;;;;;5088707;28;20030;-71
2021/11/06 09:03:20;;;;;;;11.32;8.88;;;10.20;63.90;;;;;;5097497;28;20032;-67
2021/11/06 09:05:50;;;;;;;11.50;8.80;;;10.20;64.90;;;;;;5105678;27;20226;-69
2021/11/06 09:08:18;;;;;;;11.82;8.95;;;10.10;65.00;;;;;;5096702;28;20032;-70
2021/11/06 09:10:44;;;;;;;9.75;8.27;;;10.10;65.50;;;;;;5106136;28;20417;-73
2021/11/06 09:13:10;;;;;;;10.68;8.90;;;10.20;65.60;;;;;;5092229;28;20020;-73
2021/11/06 09:15:36;;;;;;;10.55;8.77;;;10.20;66.00;;;;;;5094774;28;20081;-72
2021/11/06 09:18:02;;;;;;;10.65;8.25;;;10.30;66.40;;;;;;5093599;28;20024;-73
2021/11/06 09:20:27;;;;;;;10.40;8.32;;;10.50;65.80;;;;;;5102652;28;20089;-73
2021/11/06 09:22:54;;;;;;;10.13;8.52;;;10.70;66.10;;;;;;5095002;28;20538;-73
2021/11/06 09:25:21;;;;;;;9.57;8.32;;;11.00;65.90;;;;;;5098586;28;20030;-76
2021/11/06 09:27:46;;;;;;;9.88;7.82;;;11.30;65.80;;;;;;5089925;28;20471;-73
2021/11/06 09:30:13;;;;;;;9.90;7.80;;;11.70;64.70;;;;;;5087965;28;20115;-74
2021/11/06 09:32:40;;;;;;;9.23;7.70;;;12.00;63.80;;;;;;5088478;28;20012;-74
2021/11/06 09:35:06;;;;;;;9.65;7.20;;;12.50;64.30;;;;;;5094661;28;20099;-73
2021/11/06 09:37:32;;;;;;;9.95;7.90;;;12.80;62.80;;;;;;5092566;28;20016;-70
2021/11/06 09:39:59;;;;;;;9.88;6.72;;;12.70;61.00;;;;;;5090786;28;20028;-70
2021/11/06 09:42:25;;;;;;;8.60;6.80;;;13.00;62.80;;;;;;5092592;28;20016;-70
2021/11/06 09:44:51;;;;;;;10.93;8.05;;;13.20;61.30;;;;;;5086682;28;20032;-69
2021/11/06 09:47:19;;;;;;;11.40;7.65;;;12.90;59.40;;;;;;5090493;28;20114;-70
2021/11/06 09:49:45;;;;;;;9.85;7.03;;;12.70;60.90;;;;;;5093618;28;20032;-70
2021/11/06 09:52:11;;;;;;;9.98;6.97;;;12.60;61.20;;;;;;5092090;28;20031;-70
2021/11/06 09:54:39;;;;;;;7.57;6.72;;;12.60;62.30;;;;;;5090255;28;20032;-70
2021/11/06 09:57:05;;;;;;;7.78;7.00;;;13.00;62.60;;;;;;5092749;28;20020;-70
2021/11/06 09:59:32;;;;;;;10.05;7.80;;;13.20;61.30;;;;;;5090517;28;20025;-70
2021/11/06 10:01:58;;;;;;;8.68;7.40;;;13.40;60.30;;;;;;5092848;28;20016;-70
2021/11/06 10:04:25;;;;;;;8.18;6.82;;;13.40;60.20;;;;;;5092009;28;20495;-70
2021/11/06 10:06:51;;;;;;;9.60;6.78;;;13.40;60.00;;;;;;5090122;28;20031;-70
2021/11/06 10:09:17;;;;;;;9.65;7.15;;;13.20;60.00;;;;;;5091406;28;20032;-70
2021/11/06 10:11:52;;;;;;;9.48;6.35;;;13.00;60.10;;;;;;5091226;28;20099;-70
2021/11/06 10:14:27;;;;;;;8.70;6.38;;;12.80;60.90;;;;;;5075310;28;20124;-70
2021/11/06 10:16:59;;;;;;;8.35;6.47;;;12.60;61.30;;;;;;5092994;28;20039;-74
2021/11/06 10:19:35;;;;;;;8.45;6.63;;;12.50;61.80;;;;;;5088121;28;20134;-75
2021/11/06 10:22:20;;;;;;;6.95;5.47;;;12.50;62.20;;;;;;5083140;28;20028;-75
2021/11/06 10:24:52;;;;;;;6.65;5.53;;;12.50;62.20;;;;;;5083577;28;20025;-72
2021/11/06 10:27:24;;;;;;;8.18;6.03;;;12.40;62.50;;;;;;5089148;28;20416;-69
2021/11/06 10:30:10;;;;;;;6.68;5.70;;;12.40;62.60;;;;;;5091394;28;20040;-68
2021/11/06 10:32:41;;;;;;;7.93;6.38;;;12.50;63.40;;;;;;5090040;28;20034;-71
2021/11/06 10:35:27;;;;;;;7.38;5.32;;;12.60;62.70;;;;;;5090625;28;20122;-70
2021/11/06 10:37:59;;;;;;;9.10;6.32;;;12.70;62.90;;;;;;5089200;28;20017;-69
2021/11/06 10:40:30;;;;;;;7.43;5.82;;;12.60;62.70;;;;;;5090589;28;20038;-73
2021/11/06 10:42:57;;;;;;;8.07;5.97;;;12.60;62.80;;;;;;5089099;28;20024;-71
2021/11/06 10:45:26;;;;;;;6.85;5.05;;;12.70;64.00;;;;;;5087415;28;20081;-71
2021/11/06 10:47:58;;;;;;;8.15;5.10;;;12.70;63.90;;;;;;5086741;28;20035;-71
2021/11/06 10:50:42;;;;;;;6.43;5.22;;;12.70;63.50;;;;;;5089613;28;20031;-73
2021/11/06 10:53:09;;;;;;;6.22;5.07;;;12.80;63.60;;;;;;5088904;28;20050;-71
2021/11/06 10:55:40;;;;;;;4.90;4.30;;;12.90;64.20;;;;;;5089444;28;20481;-71
2021/11/06 10:58:33;;;;;;;5.53;4.63;;;13.00;64.10;;;;;;5087006;28;20362;-71
2021/11/06 11:01:06;;;;;;;6.10;3.75;;;13.00;63.60;;;;;;5084442;28;20245;-72
2021/11/06 11:03:43;;;;;;;5.10;4.00;;;13.00;63.50;;;;;;5090820;28;20046;-71
2021/11/06 11:06:10;;;;;;;4.43;3.47;;;13.00;63.50;;;;;;5080680;28;20119;-69
2021/11/06 11:08:46;;;;;;;5.75;3.25;;;13.00;63.50;;;;;;5082058;28;20094;-70
2021/11/06 11:11:12;;;;;;;5.15;3.72;;;13.00;63.60;;;;;;5104518;28;20032;-71
2021/11/06 11:13:50;;;;;;;4.20;3.20;;;13.10;63.80;;;;;;5090982;28;20069;-72
2021/11/06 11:16:16;;;;;;;5.28;3.35;;;13.20;64.30;;;;;;5083283;28;20024;-70
2021/11/06 11:18:47;;;;;;;4.47;3.47;;;13.30;64.30;;;;;;5087844;28;20039;-71
2021/11/06 11:21:18;;;;;;;5.53;3.40;;;13.50;63.90;;;;;;5080339;28;20050;-70
2021/11/06 11:23:54;;;;;;;5.20;3.47;;;13.60;64.10;;;;;;5104891;27;20055;-72
2021/11/06 11:26:26;;;;;;;5.30;3.47;;;13.70;63.40;;;;;;5089755;28;20588;-72
2021/11/06 11:28:53;;;;;;;4.38;3.17;;;13.80;63.10;;;;;;5085959;28;20040;-72
2021/11/06 11:31:20;;;;;;;6.43;3.30;;;13.80;63.30;;;;;;5088110;28;20085;-71
2021/11/06 11:33:46;;;;;;;4.40;3.22;;;13.90;62.70;;;;;;5088525;28;20032;-70
2021/11/06 11:36:14;;;;;;;5.25;3.08;;;13.90;62.50;;;;;;5089032;28;20020;-70
2021/11/06 11:38:40;;;;;;;6.38;3.30;;;14.00;63.30;;;;;;5090692;28;20024;-71
2021/11/06 11:41:12;;;;;;;3.65;2.97;;;14.10;62.90;;;;;;5089813;28;20024;-70
2021/11/06 11:44:03;;;;;;;4.13;3.08;;;14.20;62.90;;;;;;5091632;28;20488;-70
2021/11/06 11:46:51;;;;;;;3.17;2.80;;;14.20;62.40;;;;;;5047916;28;20037;-71
2021/11/06 11:49:19;;;;;;;4.88;3.30;;;14.10;62.30;;;;;;5048831;28;20053;-72
2021/11/06 11:51:45;;;;;;;6.05;2.90;;;14.00;62.60;;;;;;5048714;28;20064;-70
2021/11/06 11:54:11;;;;;;;4.90;3.10;;;14.00;62.00;;;;;;5048500;28;20227;-70
2021/11/06 11:56:39;;;;;;;4.88;3.15;;;13.90;62.40;;;;;;5048897;28;20545;-70
2021/11/06 11:59:07;;;;;;;5.75;3.08;;;13.90;62.60;;;;;;5048433;28;20062;-69
2021/11/06 12:01:34;;;;;;;4.70;3.25;;;13.90;62.90;;;;;;5048949;28;20017;-70
2021/11/06 12:04:15;;;;;;;5.55;3.20;;;13.90;62.50;;;;;;5048537;28;20041;-70
2021/11/06 12:06:43;;;;;;;5.05;3.03;;;13.90;63.30;;;;;;5048788;28;20116;-69
2021/11/06 12:09:12;;;;;;;5.22;3.00;;;14.00;63.00;;;;;;5048339;28;20039;-71
2021/11/06 12:12:04;;;;;;;3.85;2.55;;;14.10;63.60;;;;;;5029578;28;20032;-70
2021/11/06 12:14:41;;;;;;;4.72;2.58;;;14.20;63.50;;;;;;5031448;28;20094;-71
2021/11/06 12:17:08;;;;;;;3.58;2.50;;;14.20;62.70;;;;;;5047396;28;20510;-71
2021/11/06 12:19:41;;;;;;;4.20;2.40;;;14.20;62.80;;;;;;5048824;28;20029;-76
2021/11/06 12:22:29;;;;;;;2.83;2.13;;;14.20;63.10;;;;;;5040355;28;20041;-75
2021/11/06 12:25:16;;;;;;;3.83;2.45;;;14.30;63.30;;;;;;5083802;28;20059;-75
2021/11/06 12:28:00;;;;;;;4.55;2.50;;;14.30;62.20;;;;;;5082438;28;20076;-75
2021/11/06 12:30:32;;;;;;;3.22;2.25;;;14.20;62.40;;;;;;5082448;28;20062;-75
2021/11/06 12:32:59;;;;;;;5.22;2.60;;;14.20;62.40;;;;;;5086577;28;20103;-76
2021/11/06 12:35:27;;;;;;;4.88;2.63;;;14.10;62.60;;;;;;5080840;28;20024;-76
2021/11/06 12:38:33;;;;;;;4.15;2.20;;;14.00;62.60;;;;;;5086737;28;20111;-76
2021/11/06 12:40:59;;;;;;;6.82;2.35;;;14.00;63.30;;;;;;5089819;28;20421;-76
2021/11/06 12:43:27;;;;;;;4.68;2.22;;;15.00;66.80;;;;;;5086833;28;20062;-75
2021/11/06 12:46:16;;;;;;;3.97;2.45;;;15.70;64.30;;;;;;5087422;28;20027;-76
2021/11/06 12:48:45;;;;;;;4.25;1.98;;;16.10;62.20;;;;;;5086589;28;20130;-75